Popple River, Wisconsin
Current Conditions -  °F | °C
As of 11:15 AM on Saturday 20 Dec 2014 (Local Time) from KEGV Reporting Station
Haze Haze  
Wind Chill: 25°   Ceiling: 500
Heat Index: 25°   Visibility: 4mi
Dew Point: 25°   Wind: 0mph
Humidity: 100%   Direction: NA
Pressure: 30.16"   Gusts: NA
Location:  45.9186°N, 88.7601°W
Report Text: KEGV 201715Z AUTO 00000KT 4SM BR OVC005 M04/M04 A3016 RMK AO2 T10401040
Loading
Personal Weather Stations






























Interactive Weather Map New forecast layout! Learn more

10-Day Weather Forecast

Advertisements
Track Severe Weather on mobile